Antwerp, Belgium
Current Conditions -  °F | °C
As of 1:50 AM on Sunday 26 Oct 2014 (Local Time) from EBAW Reporting Station
Overcast Overcast  
Wind Chill: 55°   Ceiling: 4200
Heat Index: 55°   Visibility: 6mi
Dew Point: 46°   Wind: 5mph
Humidity: 72%   Direction: 210°SSW
Pressure: 30.21"   Gusts: NA
Location:  51.26°N, 4.36°E
Report Text: EBAW 252350Z AUTO 21004KT 9999 FEW029/// OVC042/// 13/08 Q1023
Loading
Personal Weather Stations






























Interactive Weather Map
Tropical Storm Tracking
New forecast layout! Learn more

10-Day Weather Forecast

Advertisements
Track Severe Weather on mobile